sensor_id;sensor_type;location;lat;lon;timestamp;P1;durP1;ratioP1;P2;durP2;ratioP2
56517;SDS011;42419;48.760;2.322;2023-04-25T00:00:18;2.40;;;2.20;;
56517;SDS011;42419;48.760;2.322;2023-04-25T00:02:44;2.60;;;2.30;;
56517;SDS011;42419;48.760;2.322;2023-04-25T00:05:11;2.63;;;2.30;;
56517;SDS011;42419;48.760;2.322;2023-04-25T00:07:36;3.67;;;2.37;;
56517;SDS011;42419;48.760;2.322;2023-04-25T00:10:02;2.70;;;2.50;;
56517;SDS011;42419;48.760;2.322;2023-04-25T00:12:28;2.53;;;2.20;;
56517;SDS011;42419;48.760;2.322;2023-04-25T00:14:54;2.53;;;2.33;;
56517;SDS011;42419;48.760;2.322;2023-04-25T00:17:21;2.73;;;2.53;;
56517;SDS011;42419;48.760;2.322;2023-04-25T00:19:49;2.40;;;1.90;;
56517;SDS011;42419;48.760;2.322;2023-04-25T00:22:14;2.60;;;2.40;;
56517;SDS011;42419;48.760;2.322;2023-04-25T00:24:40;2.70;;;2.10;;
56517;SDS011;42419;48.760;2.322;2023-04-25T00:27:06;3.17;;;2.63;;
56517;SDS011;42419;48.760;2.322;2023-04-25T00:29:31;2.23;;;2.00;;
56517;SDS011;42419;48.760;2.322;2023-04-25T00:31:56;2.10;;;1.90;;
56517;SDS011;42419;48.760;2.322;2023-04-25T00:34:21;2.57;;;2.20;;
56517;SDS011;42419;48.760;2.322;2023-04-25T00:36:47;2.57;;;2.37;;
56517;SDS011;42419;48.760;2.322;2023-04-25T00:39:12;3.40;;;2.30;;
56517;SDS011;42419;48.760;2.322;2023-04-25T00:41:37;2.27;;;2.07;;
56517;SDS011;42419;48.760;2.322;2023-04-25T00:44:03;2.70;;;2.33;;
56517;SDS011;42419;48.760;2.322;2023-04-25T00:46:30;3.00;;;2.03;;
56517;SDS011;42419;48.760;2.322;2023-04-25T00:48:56;2.50;;;2.30;;
56517;SDS011;42419;48.760;2.322;2023-04-25T00:51:21;1.97;;;1.87;;
56517;SDS011;42419;48.760;2.322;2023-04-25T00:53:47;2.40;;;1.97;;
56517;SDS011;42419;48.760;2.322;2023-04-25T00:56:14;2.40;;;2.10;;
56517;SDS011;42419;48.760;2.322;2023-04-25T00:58:41;3.23;;;2.30;;
56517;SDS011;42419;48.760;2.322;2023-04-25T01:01:07;1.60;;;1.50;;
56517;SDS011;42419;48.760;2.322;2023-04-25T01:03:35;3.17;;;1.90;;
56517;SDS011;42419;48.760;2.322;2023-04-25T01:06:06;2.10;;;1.90;;
56517;SDS011;42419;48.760;2.322;2023-04-25T01:08:33;2.17;;;1.93;;
56517;SDS011;42419;48.760;2.322;2023-04-25T01:10:58;2.03;;;1.83;;
56517;SDS011;42419;48.760;2.322;2023-04-25T01:13:24;2.30;;;2.03;;
56517;SDS011;42419;48.760;2.322;2023-04-25T01:15:49;1.90;;;1.60;;
56517;SDS011;42419;48.760;2.322;2023-04-25T01:18:15;1.80;;;1.70;;
56517;SDS011;42419;48.760;2.322;2023-04-25T01:20:41;2.63;;;1.70;;
56517;SDS011;42419;48.760;2.322;2023-04-25T01:23:06;2.40;;;1.90;;
56517;SDS011;42419;48.760;2.322;2023-04-25T01:25:32;2.97;;;2.07;;
56517;SDS011;42419;48.760;2.322;2023-04-25T01:27:58;2.27;;;1.67;;
56517;SDS011;42419;48.760;2.322;2023-04-25T01:30:28;2.27;;;1.97;;
56517;SDS011;42419;48.760;2.322;2023-04-25T01:32:54;2.27;;;1.90;;
56517;SDS011;42419;48.760;2.322;2023-04-25T01:35:21;1.87;;;1.77;;
56517;SDS011;42419;48.760;2.322;2023-04-25T01:37:51;3.10;;;2.10;;
56517;SDS011;42419;48.760;2.322;2023-04-25T01:40:17;1.83;;;1.73;;
56517;SDS011;42419;48.760;2.322;2023-04-25T01:42:43;2.37;;;1.97;;
56517;SDS011;42419;48.760;2.322;2023-04-25T01:45:09;2.33;;;1.87;;
56517;SDS011;42419;48.760;2.322;2023-04-25T01:47:36;2.13;;;1.93;;
56517;SDS011;42419;48.760;2.322;2023-04-25T01:50:04;2.03;;;1.73;;
56517;SDS011;42419;48.760;2.322;2023-04-25T01:52:31;2.33;;;2.13;;
56517;SDS011;42419;48.760;2.322;2023-04-25T01:54:57;2.10;;;1.80;;
56517;SDS011;42419;48.760;2.322;2023-04-25T01:57:24;1.90;;;1.70;;
56517;SDS011;42419;48.760;2.322;2023-04-25T01:59:49;2.17;;;1.70;;
56517;SDS011;42419;48.760;2.322;2023-04-25T02:02:15;1.93;;;1.73;;
56517;SDS011;42419;48.760;2.322;2023-04-25T02:04:40;1.83;;;1.60;;
56517;SDS011;42419;48.760;2.322;2023-04-25T02:07:05;3.70;;;1.90;;
56517;SDS011;42419;48.760;2.322;2023-04-25T02:09:31;2.40;;;1.83;;
56517;SDS011;42419;48.760;2.322;2023-04-25T02:11:56;2.30;;;2.10;;
56517;SDS011;42419;48.760;2.322;2023-04-25T02:14:21;2.50;;;1.90;;
56517;SDS011;42419;48.760;2.322;2023-04-25T02:16:47;2.33;;;2.10;;
56517;SDS011;42419;48.760;2.322;2023-04-25T02:19:12;1.80;;;1.60;;
56517;SDS011;42419;48.760;2.322;2023-04-25T02:21:37;2.30;;;1.77;;
56517;SDS011;42419;48.760;2.322;2023-04-25T02:24:03;1.87;;;1.57;;
56517;SDS011;42419;48.760;2.322;2023-04-25T02:26:29;2.17;;;1.97;;
56517;SDS011;42419;48.760;2.322;2023-04-25T02:28:55;1.67;;;1.50;;
56517;SDS011;42419;48.760;2.322;2023-04-25T02:31:21;2.43;;;2.10;;
56517;SDS011;42419;48.760;2.322;2023-04-25T02:33:47;2.03;;;1.83;;
56517;SDS011;42419;48.760;2.322;2023-04-25T02:36:12;3.47;;;1.77;;
56517;SDS011;42419;48.760;2.322;2023-04-25T02:38:38;2.13;;;1.70;;
56517;SDS011;42419;48.760;2.322;2023-04-25T02:41:03;5.57;;;2.07;;
56517;SDS011;42419;48.760;2.322;2023-04-25T02:43:29;2.87;;;1.90;;
56517;SDS011;42419;48.760;2.322;2023-04-25T02:45:54;2.67;;;1.90;;
56517;SDS011;42419;48.760;2.322;2023-04-25T02:48:20;2.00;;;1.60;;
56517;SDS011;42419;48.760;2.322;2023-04-25T02:50:45;2.67;;;2.20;;
56517;SDS011;42419;48.760;2.322;2023-04-25T02:53:10;2.40;;;1.77;;
56517;SDS011;42419;48.760;2.322;2023-04-25T02:55:36;4.07;;;2.07;;
56517;SDS011;42419;48.760;2.322;2023-04-25T02:58:01;3.10;;;2.17;;
56517;SDS011;42419;48.760;2.322;2023-04-25T03:00:27;3.93;;;2.20;;
56517;SDS011;42419;48.760;2.322;2023-04-25T03:02:52;2.27;;;1.80;;
56517;SDS011;42419;48.760;2.322;2023-04-25T03:05:17;2.73;;;2.07;;
56517;SDS011;42419;48.760;2.322;2023-04-25T03:07:43;3.20;;;2.27;;
56517;SDS011;42419;48.760;2.322;2023-04-25T03:10:09;2.17;;;1.83;;
56517;SDS011;42419;48.760;2.322;2023-04-25T03:12:35;2.63;;;2.40;;
56517;SDS011;42419;48.760;2.322;2023-04-25T03:15:00;2.00;;;1.80;;
56517;SDS011;42419;48.760;2.322;2023-04-25T03:17:26;2.77;;;2.00;;
56517;SDS011;42419;48.760;2.322;2023-04-25T03:19:51;2.03;;;1.83;;
56517;SDS011;42419;48.760;2.322;2023-04-25T03:22:16;2.30;;;1.90;;
56517;SDS011;42419;48.760;2.322;2023-04-25T03:24:42;2.40;;;2.13;;
56517;SDS011;42419;48.760;2.322;2023-04-25T03:27:07;2.80;;;1.87;;
56517;SDS011;42419;48.760;2.322;2023-04-25T03:29:33;3.30;;;2.10;;
56517;SDS011;42419;48.760;2.322;2023-04-25T03:31:58;3.50;;;2.10;;
56517;SDS011;42419;48.760;2.322;2023-04-25T03:34:26;2.80;;;2.27;;
56517;SDS011;42419;48.760;2.322;2023-04-25T03:36:52;2.37;;;1.90;;
56517;SDS011;42419;48.760;2.322;2023-04-25T03:39:17;2.50;;;1.87;;
56517;SDS011;42419;48.760;2.322;2023-04-25T03:41:42;2.23;;;1.70;;
56517;SDS011;42419;48.760;2.322;2023-04-25T03:44:08;3.53;;;2.20;;
56517;SDS011;42419;48.760;2.322;2023-04-25T03:46:33;3.50;;;2.10;;
56517;SDS011;42419;48.760;2.322;2023-04-25T03:48:58;2.80;;;2.10;;
56517;SDS011;42419;48.760;2.322;2023-04-25T03:51:24;2.63;;;1.97;;
56517;SDS011;42419;48.760;2.322;2023-04-25T03:53:50;2.50;;;1.80;;
56517;SDS011;42419;48.760;2.322;2023-04-25T03:56:16;5.30;;;1.90;;
56517;SDS011;42419;48.760;2.322;2023-04-25T03:58:41;2.90;;;2.10;;
56517;SDS011;42419;48.760;2.322;2023-04-25T04:01:06;2.20;;;1.83;;
56517;SDS011;42419;48.760;2.322;2023-04-25T04:03:33;2.00;;;1.80;;
56517;SDS011;42419;48.760;2.322;2023-04-25T04:06:00;2.50;;;2.13;;
56517;SDS011;42419;48.760;2.322;2023-04-25T04:08:25;2.67;;;2.00;;
56517;SDS011;42419;48.760;2.322;2023-04-25T04:10:50;2.53;;;1.90;;
56517;SDS011;42419;48.760;2.322;2023-04-25T04:13:16;2.47;;;2.27;;
56517;SDS011;42419;48.760;2.322;2023-04-25T04:15:41;3.37;;;1.90;;
56517;SDS011;42419;48.760;2.322;2023-04-25T04:18:06;4.90;;;2.20;;
56517;SDS011;42419;48.760;2.322;2023-04-25T04:20:31;2.30;;;1.80;;
56517;SDS011;42419;48.760;2.322;2023-04-25T04:22:57;2.33;;;1.90;;
56517;SDS011;42419;48.760;2.322;2023-04-25T04:25:22;3.23;;;2.23;;
56517;SDS011;42419;48.760;2.322;2023-04-25T04:27:49;2.20;;;1.93;;
56517;SDS011;42419;48.760;2.322;2023-04-25T04:30:16;2.50;;;2.00;;
56517;SDS011;42419;48.760;2.322;2023-04-25T04:32:42;3.13;;;2.10;;
56517;SDS011;42419;48.760;2.322;2023-04-25T04:35:08;3.70;;;2.20;;
56517;SDS011;42419;48.760;2.322;2023-04-25T04:37:33;2.57;;;1.83;;
56517;SDS011;42419;48.760;2.322;2023-04-25T04:39:59;2.17;;;1.97;;
56517;SDS011;42419;48.760;2.322;2023-04-25T04:42:24;2.97;;;2.23;;
56517;SDS011;42419;48.760;2.322;2023-04-25T04:44:50;3.20;;;2.17;;
56517;SDS011;42419;48.760;2.322;2023-04-25T04:47:17;5.23;;;2.10;;
56517;SDS011;42419;48.760;2.322;2023-04-25T04:49:42;3.30;;;2.30;;
56517;SDS011;42419;48.760;2.322;2023-04-25T04:52:07;2.33;;;2.07;;
56517;SDS011;42419;48.760;2.322;2023-04-25T04:54:33;2.87;;;2.13;;
56517;SDS011;42419;48.760;2.322;2023-04-25T04:57:00;2.67;;;2.13;;
56517;SDS011;42419;48.760;2.322;2023-04-25T04:59:25;3.10;;;2.07;;
56517;SDS011;42419;48.760;2.322;2023-04-25T05:01:52;2.40;;;2.10;;
56517;SDS011;42419;48.760;2.322;2023-04-25T05:04:17;2.77;;;2.00;;
56517;SDS011;42419;48.760;2.322;2023-04-25T05:06:46;2.77;;;2.00;;
56517;SDS011;42419;48.760;2.322;2023-04-25T05:09:11;2.60;;;2.13;;
56517;SDS011;42419;48.760;2.322;2023-04-25T05:11:37;3.80;;;2.10;;
56517;SDS011;42419;48.760;2.322;2023-04-25T05:14:02;4.17;;;1.90;;
56517;SDS011;42419;48.760;2.322;2023-04-25T05:16:28;3.60;;;2.23;;
56517;SDS011;42419;48.760;2.322;2023-04-25T05:18:53;2.90;;;2.00;;
56517;SDS011;42419;48.760;2.322;2023-04-25T05:21:18;4.70;;;2.27;;
56517;SDS011;42419;48.760;2.322;2023-04-25T05:23:43;2.50;;;1.60;;
56517;SDS011;42419;48.760;2.322;2023-04-25T05:26:09;5.60;;;2.00;;
56517;SDS011;42419;48.760;2.322;2023-04-25T05:28:38;2.57;;;2.13;;
56517;SDS011;42419;48.760;2.322;2023-04-25T05:31:07;2.23;;;1.90;;
56517;SDS011;42419;48.760;2.322;2023-04-25T05:33:34;2.83;;;1.90;;
56517;SDS011;42419;48.760;2.322;2023-04-25T05:36:00;4.47;;;1.97;;
56517;SDS011;42419;48.760;2.322;2023-04-25T05:38:25;3.20;;;2.13;;
56517;SDS011;42419;48.760;2.322;2023-04-25T05:40:51;3.10;;;2.00;;
56517;SDS011;42419;48.760;2.322;2023-04-25T05:43:16;4.37;;;2.20;;
56517;SDS011;42419;48.760;2.322;2023-04-25T05:45:41;4.90;;;2.23;;
56517;SDS011;42419;48.760;2.322;2023-04-25T05:48:06;3.10;;;2.10;;
56517;SDS011;42419;48.760;2.322;2023-04-25T05:50:32;3.70;;;2.20;;
56517;SDS011;42419;48.760;2.322;2023-04-25T05:52:57;2.90;;;2.00;;
56517;SDS011;42419;48.760;2.322;2023-04-25T05:55:22;3.33;;;2.20;;
56517;SDS011;42419;48.760;2.322;2023-04-25T05:57:48;4.43;;;2.30;;
56517;SDS011;42419;48.760;2.322;2023-04-25T06:00:13;2.90;;;2.13;;
56517;SDS011;42419;48.760;2.322;2023-04-25T06:02:40;4.27;;;2.67;;
56517;SDS011;42419;48.760;2.322;2023-04-25T06:05:06;7.97;;;2.23;;
56517;SDS011;42419;48.760;2.322;2023-04-25T06:07:32;4.00;;;2.60;;
56517;SDS011;42419;48.760;2.322;2023-04-25T06:09:58;5.03;;;2.53;;
56517;SDS011;42419;48.760;2.322;2023-04-25T06:12:24;4.37;;;2.13;;
56517;SDS011;42419;48.760;2.322;2023-04-25T06:14:49;4.90;;;2.20;;
56517;SDS011;42419;48.760;2.322;2023-04-25T06:17:14;3.43;;;2.20;;
56517;SDS011;42419;48.760;2.322;2023-04-25T06:19:40;3.03;;;2.10;;
56517;SDS011;42419;48.760;2.322;2023-04-25T06:22:05;5.40;;;2.67;;
56517;SDS011;42419;48.760;2.322;2023-04-25T06:24:32;6.67;;;1.93;;
56517;SDS011;42419;48.760;2.322;2023-04-25T06:26:57;3.30;;;2.60;;
56517;SDS011;42419;48.760;2.322;2023-04-25T06:29:23;6.27;;;2.77;;
56517;SDS011;42419;48.760;2.322;2023-04-25T06:31:48;4.07;;;2.63;;
56517;SDS011;42419;48.760;2.322;2023-04-25T06:34:13;3.40;;;2.53;;
56517;SDS011;42419;48.760;2.322;2023-04-25T06:36:40;2.80;;;2.00;;
56517;SDS011;42419;48.760;2.322;2023-04-25T06:39:06;3.80;;;2.57;;
56517;SDS011;42419;48.760;2.322;2023-04-25T06:41:31;2.90;;;2.40;;
56517;SDS011;42419;48.760;2.322;2023-04-25T06:43:57;3.40;;;2.40;;
56517;SDS011;42419;48.760;2.322;2023-04-25T06:46:22;4.33;;;2.67;;
56517;SDS011;42419;48.760;2.322;2023-04-25T06:48:47;5.00;;;2.53;;
56517;SDS011;42419;48.760;2.322;2023-04-25T06:51:13;2.77;;;1.90;;
56517;SDS011;42419;48.760;2.322;2023-04-25T06:53:38;3.40;;;2.50;;
56517;SDS011;42419;48.760;2.322;2023-04-25T06:56:04;3.30;;;2.33;;
56517;SDS011;42419;48.760;2.322;2023-04-25T06:58:29;5.57;;;2.57;;
56517;SDS011;42419;48.760;2.322;2023-04-25T07:00:54;5.57;;;3.00;;
56517;SDS011;42419;48.760;2.322;2023-04-25T07:03:20;4.87;;;2.63;;
56517;SDS011;42419;48.760;2.322;2023-04-25T07:05:45;4.57;;;2.80;;
56517;SDS011;42419;48.760;2.322;2023-04-25T07:08:11;2.93;;;2.60;;
56517;SDS011;42419;48.760;2.322;2023-04-25T07:10:36;4.60;;;3.00;;
56517;SDS011;42419;48.760;2.322;2023-04-25T07:13:01;6.27;;;3.20;;
56517;SDS011;42419;48.760;2.322;2023-04-25T07:15:26;3.00;;;2.57;;
56517;SDS011;42419;48.760;2.322;2023-04-25T07:17:52;4.30;;;2.40;;
56517;SDS011;42419;48.760;2.322;2023-04-25T07:20:17;3.20;;;2.70;;
56517;SDS011;42419;48.760;2.322;2023-04-25T07:22:42;5.47;;;2.53;;
56517;SDS011;42419;48.760;2.322;2023-04-25T07:25:08;4.77;;;2.83;;
56517;SDS011;42419;48.760;2.322;2023-04-25T07:27:34;3.47;;;2.50;;
56517;SDS011;42419;48.760;2.322;2023-04-25T07:30:00;6.83;;;2.30;;
56517;SDS011;42419;48.760;2.322;2023-04-25T07:32:25;5.23;;;2.23;;
56517;SDS011;42419;48.760;2.322;2023-04-25T07:34:51;3.20;;;2.33;;
56517;SDS011;42419;48.760;2.322;2023-04-25T07:37:17;4.80;;;2.60;;
56517;SDS011;42419;48.760;2.322;2023-04-25T07:39:43;4.00;;;2.60;;
56517;SDS011;42419;48.760;2.322;2023-04-25T07:42:10;4.60;;;2.60;;
56517;SDS011;42419;48.760;2.322;2023-04-25T07:44:36;4.60;;;2.60;;
56517;SDS011;42419;48.760;2.322;2023-04-25T07:47:06;3.33;;;2.23;;
56517;SDS011;42419;48.760;2.322;2023-04-25T07:49:41;4.97;;;2.40;;
56517;SDS011;42419;48.760;2.322;2023-04-25T07:52:06;3.60;;;2.53;;
56517;SDS011;42419;48.760;2.322;2023-04-25T07:54:32;2.90;;;2.30;;
56517;SDS011;42419;48.760;2.322;2023-04-25T07:56:58;5.47;;;2.67;;
56517;SDS011;42419;48.760;2.322;2023-04-25T07:59:23;10.10;;;2.87;;
56517;SDS011;42419;48.760;2.322;2023-04-25T08:01:49;29.23;;;5.70;;
56517;SDS011;42419;48.760;2.322;2023-04-25T08:04:14;46.97;;;9.20;;
56517;SDS011;42419;48.760;2.322;2023-04-25T08:06:39;48.80;;;10.40;;
56517;SDS011;42419;48.760;2.322;2023-04-25T08:09:05;56.50;;;10.73;;
56517;SDS011;42419;48.760;2.322;2023-04-25T08:11:31;49.63;;;10.60;;
56517;SDS011;42419;48.760;2.322;2023-04-25T08:13:56;46.43;;;9.40;;
56517;SDS011;42419;48.760;2.322;2023-04-25T08:16:21;56.70;;;9.60;;
56517;SDS011;42419;48.760;2.322;2023-04-25T08:18:47;74.43;;;11.80;;
56517;SDS011;42419;48.760;2.322;2023-04-25T08:21:12;105.43;;;18.17;;
56517;SDS011;42419;48.760;2.322;2023-04-25T08:23:38;138.80;;;19.43;;
56517;SDS011;42419;48.760;2.322;2023-04-25T08:26:04;136.13;;;20.23;;
56517;SDS011;42419;48.760;2.322;2023-04-25T08:28:30;102.37;;;15.50;;
56517;SDS011;42419;48.760;2.322;2023-04-25T08:30:55;108.47;;;19.07;;
56517;SDS011;42419;48.760;2.322;2023-04-25T08:33:20;91.67;;;14.70;;
56517;SDS011;42419;48.760;2.322;2023-04-25T08:35:46;91.10;;;17.70;;
56517;SDS011;42419;48.760;2.322;2023-04-25T08:38:11;82.73;;;14.17;;
56517;SDS011;42419;48.760;2.322;2023-04-25T08:40:37;89.80;;;16.27;;
56517;SDS011;42419;48.760;2.322;2023-04-25T08:43:04;173.87;;;21.20;;
56517;SDS011;42419;48.760;2.322;2023-04-25T08:45:36;287.87;;;32.20;;
56517;SDS011;42419;48.760;2.322;2023-04-25T08:48:04;319.63;;;33.60;;
56517;SDS011;42419;48.760;2.322;2023-04-25T08:50:31;293.33;;;34.00;;
56517;SDS011;42419;48.760;2.322;2023-04-25T08:52:56;282.20;;;30.90;;
56517;SDS011;42419;48.760;2.322;2023-04-25T08:55:26;250.30;;;29.70;;
56517;SDS011;42419;48.760;2.322;2023-04-25T08:57:53;252.10;;;28.50;;
56517;SDS011;42419;48.760;2.322;2023-04-25T09:00:20;240.90;;;31.57;;
56517;SDS011;42419;48.760;2.322;2023-04-25T09:02:47;236.97;;;31.10;;
56517;SDS011;42419;48.760;2.322;2023-04-25T09:05:13;218.40;;;33.13;;
56517;SDS011;42419;48.760;2.322;2023-04-25T09:07:39;173.77;;;30.60;;
56517;SDS011;42419;48.760;2.322;2023-04-25T09:10:04;193.90;;;29.83;;
56517;SDS011;42419;48.760;2.322;2023-04-25T09:12:30;187.37;;;29.80;;
56517;SDS011;42419;48.760;2.322;2023-04-25T09:15:04;164.47;;;27.70;;
56517;SDS011;42419;48.760;2.322;2023-04-25T09:17:32;141.37;;;27.60;;
56517;SDS011;42419;48.760;2.322;2023-04-25T09:20:11;125.90;;;24.87;;
56517;SDS011;42419;48.760;2.322;2023-04-25T09:22:38;112.37;;;21.83;;
56517;SDS011;42419;48.760;2.322;2023-04-25T09:25:07;106.90;;;20.47;;
56517;SDS011;42419;48.760;2.322;2023-04-25T09:27:35;112.80;;;20.50;;
56517;SDS011;42419;48.760;2.322;2023-04-25T09:30:00;107.20;;;19.17;;
56517;SDS011;42419;48.760;2.322;2023-04-25T09:32:26;87.83;;;18.70;;
56517;SDS011;42419;48.760;2.322;2023-04-25T09:34:57;78.60;;;20.50;;
56517;SDS011;42419;48.760;2.322;2023-04-25T09:37:24;104.73;;;20.10;;
56517;SDS011;42419;48.760;2.322;2023-04-25T09:39:50;91.50;;;16.30;;
56517;SDS011;42419;48.760;2.322;2023-04-25T09:42:20;89.40;;;19.13;;
56517;SDS011;42419;48.760;2.322;2023-04-25T09:44:47;69.90;;;17.00;;
56517;SDS011;42419;48.760;2.322;2023-04-25T09:47:13;112.30;;;19.10;;
56517;SDS011;42419;48.760;2.322;2023-04-25T09:49:41;99.13;;;16.40;;
56517;SDS011;42419;48.760;2.322;2023-04-25T09:52:07;77.77;;;15.90;;
56517;SDS011;42419;48.760;2.322;2023-04-25T09:54:32;66.57;;;16.10;;
56517;SDS011;42419;48.760;2.322;2023-04-25T09:56:58;69.90;;;15.63;;
56517;SDS011;42419;48.760;2.322;2023-04-25T09:59:46;70.93;;;15.57;;
56517;SDS011;42419;48.760;2.322;2023-04-25T10:02:15;71.20;;;14.83;;
56517;SDS011;42419;48.760;2.322;2023-04-25T10:04:48;78.27;;;14.33;;
56517;SDS011;42419;48.760;2.322;2023-04-25T10:07:16;79.33;;;16.23;;
56517;SDS011;42419;48.760;2.322;2023-04-25T10:09:42;71.93;;;14.80;;
56517;SDS011;42419;48.760;2.322;2023-04-25T10:12:12;65.33;;;13.20;;
56517;SDS011;42419;48.760;2.322;2023-04-25T10:14:37;58.50;;;13.53;;
56517;SDS011;42419;48.760;2.322;2023-04-25T10:17:03;62.33;;;14.13;;
56517;SDS011;42419;48.760;2.322;2023-04-25T10:19:28;72.90;;;13.83;;
56517;SDS011;42419;48.760;2.322;2023-04-25T10:22:03;68.50;;;14.20;;
56517;SDS011;42419;48.760;2.322;2023-04-25T10:24:33;52.17;;;12.70;;
56517;SDS011;42419;48.760;2.322;2023-04-25T10:27:00;87.73;;;17.70;;
56517;SDS011;42419;48.760;2.322;2023-04-25T10:29:26;99.40;;;20.57;;
56517;SDS011;42419;48.760;2.322;2023-04-25T10:31:52;99.63;;;21.70;;
56517;SDS011;42419;48.760;2.322;2023-04-25T10:34:18;69.53;;;17.30;;
56517;SDS011;42419;48.760;2.322;2023-04-25T10:36:51;64.33;;;17.10;;
56517;SDS011;42419;48.760;2.322;2023-04-25T10:39:24;115.70;;;20.37;;
56517;SDS011;42419;48.760;2.322;2023-04-25T10:41:55;97.67;;;19.47;;
56517;SDS011;42419;48.760;2.322;2023-04-25T10:44:22;88.87;;;20.40;;
56517;SDS011;42419;48.760;2.322;2023-04-25T10:46:51;90.17;;;20.10;;
56517;SDS011;42419;48.760;2.322;2023-04-25T10:49:30;124.60;;;23.33;;
56517;SDS011;42419;48.760;2.322;2023-04-25T10:52:16;95.43;;;19.33;;
56517;SDS011;42419;48.760;2.322;2023-04-25T10:54:56;154.53;;;33.13;;
56517;SDS011;42419;48.760;2.322;2023-04-25T11:00:17;250.83;;;62.00;;
56517;SDS011;42419;48.760;2.322;2023-04-25T11:02:57;221.93;;;57.37;;
56517;SDS011;42419;48.760;2.322;2023-04-25T11:05:31;200.40;;;51.97;;
56517;SDS011;42419;48.760;2.322;2023-04-25T11:07:58;218.30;;;53.57;;
56517;SDS011;42419;48.760;2.322;2023-04-25T11:10:28;248.37;;;59.50;;
56517;SDS011;42419;48.760;2.322;2023-04-25T11:12:55;250.80;;;60.97;;
56517;SDS011;42419;48.760;2.322;2023-04-25T11:15:21;240.60;;;61.10;;
56517;SDS011;42419;48.760;2.322;2023-04-25T11:17:47;200.90;;;58.00;;
56517;SDS011;42419;48.760;2.322;2023-04-25T11:20:12;206.73;;;56.00;;
56517;SDS011;42419;48.760;2.322;2023-04-25T11:22:39;231.23;;;55.13;;
56517;SDS011;42419;48.760;2.322;2023-04-25T11:25:08;231.57;;;54.43;;
56517;SDS011;42419;48.760;2.322;2023-04-25T11:27:38;205.87;;;48.63;;
56517;SDS011;42419;48.760;2.322;2023-04-25T11:30:15;189.73;;;50.67;;
56517;SDS011;42419;48.760;2.322;2023-04-25T11:32:41;171.20;;;47.50;;
56517;SDS011;42419;48.760;2.322;2023-04-25T11:35:10;158.77;;;43.70;;
56517;SDS011;42419;48.760;2.322;2023-04-25T11:37:36;166.37;;;39.80;;
56517;SDS011;42419;48.760;2.322;2023-04-25T11:40:03;139.97;;;38.80;;
56517;SDS011;42419;48.760;2.322;2023-04-25T11:42:31;132.77;;;39.40;;
56517;SDS011;42419;48.760;2.322;2023-04-25T11:44:57;139.67;;;40.30;;
56517;SDS011;42419;48.760;2.322;2023-04-25T11:47:30;115.03;;;38.00;;
56517;SDS011;42419;48.760;2.322;2023-04-25T11:49:57;97.63;;;30.50;;
56517;SDS011;42419;48.760;2.322;2023-04-25T11:52:23;89.53;;;27.90;;
56517;SDS011;42419;48.760;2.322;2023-04-25T11:54:49;95.57;;;26.70;;
56517;SDS011;42419;48.760;2.322;2023-04-25T11:57:14;87.67;;;25.80;;
56517;SDS011;42419;48.760;2.322;2023-04-25T11:59:43;68.70;;;24.33;;
56517;SDS011;42419;48.760;2.322;2023-04-25T12:02:09;63.07;;;22.20;;
56517;SDS011;42419;48.760;2.322;2023-04-25T12:04:34;65.87;;;21.77;;
56517;SDS011;42419;48.760;2.322;2023-04-25T12:06:59;56.40;;;21.43;;
56517;SDS011;42419;48.760;2.322;2023-04-25T12:09:30;60.13;;;21.00;;
56517;SDS011;42419;48.760;2.322;2023-04-25T12:11:57;55.77;;;20.83;;
56517;SDS011;42419;48.760;2.322;2023-04-25T12:14:27;57.47;;;19.93;;
56517;SDS011;42419;48.760;2.322;2023-04-25T12:16:55;57.40;;;19.37;;
56517;SDS011;42419;48.760;2.322;2023-04-25T12:19:22;45.53;;;15.20;;
56517;SDS011;42419;48.760;2.322;2023-04-25T12:21:48;30.57;;;10.57;;
56517;SDS011;42419;48.760;2.322;2023-04-25T12:24:16;41.90;;;13.90;;
56517;SDS011;42419;48.760;2.322;2023-04-25T12:26:46;33.90;;;15.80;;
56517;SDS011;42419;48.760;2.322;2023-04-25T12:29:20;39.40;;;14.50;;
56517;SDS011;42419;48.760;2.322;2023-04-25T12:31:47;46.27;;;14.83;;
56517;SDS011;42419;48.760;2.322;2023-04-25T12:34:12;34.40;;;12.90;;
56517;SDS011;42419;48.760;2.322;2023-04-25T12:36:38;32.50;;;13.30;;
56517;SDS011;42419;48.760;2.322;2023-04-25T12:39:04;35.07;;;14.20;;
56517;SDS011;42419;48.760;2.322;2023-04-25T12:41:30;28.97;;;13.73;;
56517;SDS011;42419;48.760;2.322;2023-04-25T12:43:55;32.90;;;13.40;;
56517;SDS011;42419;48.760;2.322;2023-04-25T12:46:20;34.40;;;14.00;;
56517;SDS011;42419;48.760;2.322;2023-04-25T12:48:47;30.03;;;11.50;;
56517;SDS011;42419;48.760;2.322;2023-04-25T12:51:13;20.80;;;10.90;;
56517;SDS011;42419;48.760;2.322;2023-04-25T12:53:38;36.17;;;11.70;;
56517;SDS011;42419;48.760;2.322;2023-04-25T12:56:05;26.47;;;11.40;;
56517;SDS011;42419;48.760;2.322;2023-04-25T12:58:32;32.87;;;11.90;;
56517;SDS011;42419;48.760;2.322;2023-04-25T13:00:58;32.63;;;11.30;;
56517;SDS011;42419;48.760;2.322;2023-04-25T13:03:23;22.43;;;10.90;;
56517;SDS011;42419;48.760;2.322;2023-04-25T13:05:49;25.00;;;10.00;;
56517;SDS011;42419;48.760;2.322;2023-04-25T13:08:17;31.17;;;9.70;;
56517;SDS011;42419;48.760;2.322;2023-04-25T13:10:42;17.10;;;10.17;;
56517;SDS011;42419;48.760;2.322;2023-04-25T13:13:08;22.30;;;9.83;;
56517;SDS011;42419;48.760;2.322;2023-04-25T13:15:33;21.97;;;10.83;;
56517;SDS011;42419;48.760;2.322;2023-04-25T13:17:59;23.97;;;10.40;;
56517;SDS011;42419;48.760;2.322;2023-04-25T13:20:24;20.37;;;9.50;;
56517;SDS011;42419;48.760;2.322;2023-04-25T13:22:49;25.43;;;10.53;;
56517;SDS011;42419;48.760;2.322;2023-04-25T13:25:15;19.73;;;9.17;;
56517;SDS011;42419;48.760;2.322;2023-04-25T13:27:41;16.97;;;8.00;;
56517;SDS011;42419;48.760;2.322;2023-04-25T13:30:09;16.77;;;7.57;;
56517;SDS011;42419;48.760;2.322;2023-04-25T13:32:35;14.93;;;8.07;;
56517;SDS011;42419;48.760;2.322;2023-04-25T13:35:02;18.43;;;9.10;;
56517;SDS011;42419;48.760;2.322;2023-04-25T13:37:32;15.50;;;7.13;;
56517;SDS011;42419;48.760;2.322;2023-04-25T13:40:04;14.93;;;8.30;;
56517;SDS011;42419;48.760;2.322;2023-04-25T13:42:35;13.33;;;7.57;;
56517;SDS011;42419;48.760;2.322;2023-04-25T13:45:01;14.90;;;7.83;;
56517;SDS011;42419;48.760;2.322;2023-04-25T13:47:28;11.30;;;6.70;;
56517;SDS011;42419;48.760;2.322;2023-04-25T13:49:53;12.43;;;6.50;;
56517;SDS011;42419;48.760;2.322;2023-04-25T13:52:19;12.63;;;7.00;;
56517;SDS011;42419;48.760;2.322;2023-04-25T13:54:45;15.10;;;7.97;;
56517;SDS011;42419;48.760;2.322;2023-04-25T13:57:11;14.93;;;7.10;;
56517;SDS011;42419;48.760;2.322;2023-04-25T13:59:36;15.53;;;6.63;;
56517;SDS011;42419;48.760;2.322;2023-04-25T14:02:02;23.00;;;7.43;;
56517;SDS011;42419;48.760;2.322;2023-04-25T14:04:27;12.60;;;6.10;;
56517;SDS011;42419;48.760;2.322;2023-04-25T14:06:53;12.93;;;5.43;;
56517;SDS011;42419;48.760;2.322;2023-04-25T14:09:18;10.20;;;5.70;;
56517;SDS011;42419;48.760;2.322;2023-04-25T14:11:45;11.37;;;6.27;;
56517;SDS011;42419;48.760;2.322;2023-04-25T14:14:11;9.10;;;6.27;;
56517;SDS011;42419;48.760;2.322;2023-04-25T14:16:38;9.47;;;5.77;;
56517;SDS011;42419;48.760;2.322;2023-04-25T14:19:03;8.90;;;5.77;;
56517;SDS011;42419;48.760;2.322;2023-04-25T14:21:28;9.70;;;5.90;;
56517;SDS011;42419;48.760;2.322;2023-04-25T14:23:54;11.07;;;5.00;;
56517;SDS011;42419;48.760;2.322;2023-04-25T14:26:19;9.80;;;5.43;;
56517;SDS011;42419;48.760;2.322;2023-04-25T14:28:45;8.43;;;5.30;;
56517;SDS011;42419;48.760;2.322;2023-04-25T14:31:10;9.27;;;5.07;;
56517;SDS011;42419;48.760;2.322;2023-04-25T14:33:36;6.00;;;4.63;;